sensor_id;sensor_type;location;lat;lon;timestamp;pressure;altitude;pressure_sealevel;temperature
73894;BMP280;62699;50.534;12.784;2022-12-18T00:02:21;97564.09;;;-11.16
73894;BMP280;62699;50.534;12.784;2022-12-18T00:07:25;97563.19;;;-11.12
73894;BMP280;62699;50.534;12.784;2022-12-18T00:12:49;97560.47;;;-11.15
73894;BMP280;62699;50.534;12.784;2022-12-18T00:17:49;97571.34;;;-11.22
73894;BMP280;62699;50.534;12.784;2022-12-18T00:22:49;97572.09;;;-11.30
73894;BMP280;62699;50.534;12.784;2022-12-18T00:27:49;97571.31;;;-11.31
73894;BMP280;62699;50.534;12.784;2022-12-18T00:32:50;97572.56;;;-11.37
73894;BMP280;62699;50.534;12.784;2022-12-18T00:37:50;97580.81;;;-11.35
73894;BMP280;62699;50.534;12.784;2022-12-18T00:42:50;97589.69;;;-11.36
73894;BMP280;62699;50.534;12.784;2022-12-18T00:47:57;97592.41;;;-11.41
73894;BMP280;62699;50.534;12.784;2022-12-18T00:52:57;97579.88;;;-11.47
73894;BMP280;62699;50.534;12.784;2022-12-18T00:57:57;97586.91;;;-11.48
73894;BMP280;62699;50.534;12.784;2022-12-18T01:02:58;97592.41;;;-11.58
73894;BMP280;62699;50.534;12.784;2022-12-18T01:07:58;97582.34;;;-11.60
73894;BMP280;62699;50.534;12.784;2022-12-18T01:12:59;97586.31;;;-11.62
73894;BMP280;62699;50.534;12.784;2022-12-18T01:17:59;97581.88;;;-11.62
73894;BMP280;62699;50.534;12.784;2022-12-18T01:22:59;97587.22;;;-11.58
73894;BMP280;62699;50.534;12.784;2022-12-18T01:28:00;97586.47;;;-11.41
73894;BMP280;62699;50.534;12.784;2022-12-18T01:33:00;97590.75;;;-11.37
73894;BMP280;62699;50.534;12.784;2022-12-18T01:38:00;97606.78;;;-11.35
73894;BMP280;62699;50.534;12.784;2022-12-18T01:43:01;97613.19;;;-11.41
73894;BMP280;62699;50.534;12.784;2022-12-18T01:48:06;97604.97;;;-11.60
73894;BMP280;62699;50.534;12.784;2022-12-18T01:53:14;97613.66;;;-11.73
73894;BMP280;62699;50.534;12.784;2022-12-18T01:58:15;97623.88;;;-11.77
73894;BMP280;62699;50.534;12.784;2022-12-18T02:03:16;97624.34;;;-11.84
73894;BMP280;62699;50.534;12.784;2022-12-18T02:08:39;97634.25;;;-11.86
73894;BMP280;62699;50.534;12.784;2022-12-18T02:13:58;97627.97;;;-11.93
73894;BMP280;62699;50.534;12.784;2022-12-18T02:19:07;97629.47;;;-12.01
73894;BMP280;62699;50.534;12.784;2022-12-18T02:30:03;97640.16;;;-12.02
73894;BMP280;62699;50.534;12.784;2022-12-18T02:35:06;97640.91;;;-12.02
73894;BMP280;62699;50.534;12.784;2022-12-18T02:40:09;97631.75;;;-12.08
73894;BMP280;62699;50.534;12.784;2022-12-18T02:45:10;97637.38;;;-12.15
73894;BMP280;62699;50.534;12.784;2022-12-18T02:50:19;97635.84;;;-12.16
73894;BMP280;62699;50.534;12.784;2022-12-18T02:55:58;97628.66;;;-12.19
73894;BMP280;62699;50.534;12.784;2022-12-18T03:06:26;97613.03;;;-12.27
73894;BMP280;62699;50.534;12.784;2022-12-18T03:11:30;97602.22;;;-12.29
73894;BMP280;62699;50.534;12.784;2022-12-18T03:16:52;97611.44;;;-12.15
73894;BMP280;62699;50.534;12.784;2022-12-18T03:21:55;97611.25;;;-12.18
73894;BMP280;62699;50.534;12.784;2022-12-18T03:27:00;97623.63;;;-12.24
73894;BMP280;62699;50.534;12.784;2022-12-18T03:32:09;97621.91;;;-12.28
73894;BMP280;62699;50.534;12.784;2022-12-18T03:37:10;97617.47;;;-12.28
73894;BMP280;62699;50.534;12.784;2022-12-18T03:42:30;97625.56;;;-12.29
73894;BMP280;62699;50.534;12.784;2022-12-18T03:48:14;97623.72;;;-12.37
73894;BMP280;62699;50.534;12.784;2022-12-18T03:53:37;97634.56;;;-12.27
73894;BMP280;62699;50.534;12.784;2022-12-18T03:58:40;97628.13;;;-12.38
73894;BMP280;62699;50.534;12.784;2022-12-18T04:03:42;97628.44;;;-12.39
73894;BMP280;62699;50.534;12.784;2022-12-18T04:08:43;97625.66;;;-12.43
73894;BMP280;62699;50.534;12.784;2022-12-18T04:13:44;97636.88;;;-12.56
73894;BMP280;62699;50.534;12.784;2022-12-18T04:18:44;97635.19;;;-12.61
73894;BMP280;62699;50.534;12.784;2022-12-18T04:23:44;97649.69;;;-12.60
73894;BMP280;62699;50.534;12.784;2022-12-18T04:28:45;97659.72;;;-12.67
73894;BMP280;62699;50.534;12.784;2022-12-18T04:33:45;97641.97;;;-12.74
73894;BMP280;62699;50.534;12.784;2022-12-18T04:38:45;97658.81;;;-12.62
73894;BMP280;62699;50.534;12.784;2022-12-18T04:43:46;97651.13;;;-12.76
73894;BMP280;62699;50.534;12.784;2022-12-18T04:48:46;97646.53;;;-12.79
73894;BMP280;62699;50.534;12.784;2022-12-18T04:53:47;97650.66;;;-12.78
73894;BMP280;62699;50.534;12.784;2022-12-18T04:58:47;97652.97;;;-12.46
73894;BMP280;62699;50.534;12.784;2022-12-18T05:03:47;97640.97;;;-12.33
73894;BMP280;62699;50.534;12.784;2022-12-18T05:08:48;97644.63;;;-11.86
73894;BMP280;62699;50.534;12.784;2022-12-18T05:13:48;97644.38;;;-11.67
73894;BMP280;62699;50.534;12.784;2022-12-18T05:18:48;97648.63;;;-11.79
73894;BMP280;62699;50.534;12.784;2022-12-18T05:23:49;97653.50;;;-11.69
73894;BMP280;62699;50.534;12.784;2022-12-18T05:28:49;97652.16;;;-11.50
73894;BMP280;62699;50.534;12.784;2022-12-18T05:33:49;97664.84;;;-11.48
73894;BMP280;62699;50.534;12.784;2022-12-18T05:38:49;97659.91;;;-11.93
73894;BMP280;62699;50.534;12.784;2022-12-18T05:43:50;97650.34;;;-12.23
73894;BMP280;62699;50.534;12.784;2022-12-18T05:48:50;97656.47;;;-12.42
73894;BMP280;62699;50.534;12.784;2022-12-18T05:53:51;97662.53;;;-12.55
73894;BMP280;62699;50.534;12.784;2022-12-18T05:58:53;97661.81;;;-12.69
73894;BMP280;62699;50.534;12.784;2022-12-18T06:03:54;97664.06;;;-12.76
73894;BMP280;62699;50.534;12.784;2022-12-18T06:08:55;97669.25;;;-12.76
73894;BMP280;62699;50.534;12.784;2022-12-18T06:13:56;97684.81;;;-12.76
73894;BMP280;62699;50.534;12.784;2022-12-18T06:19:01;97695.31;;;-12.81
73894;BMP280;62699;50.534;12.784;2022-12-18T06:24:01;97692.16;;;-12.92
73894;BMP280;62699;50.534;12.784;2022-12-18T06:29:02;97681.34;;;-12.94
73894;BMP280;62699;50.534;12.784;2022-12-18T06:34:03;97689.13;;;-12.94
73894;BMP280;62699;50.534;12.784;2022-12-18T06:39:04;97694.59;;;-12.95
73894;BMP280;62699;50.534;12.784;2022-12-18T06:44:04;97696.16;;;-12.94
73894;BMP280;62699;50.534;12.784;2022-12-18T06:49:04;97695.47;;;-13.00
73894;BMP280;62699;50.534;12.784;2022-12-18T06:54:05;97689.94;;;-13.07
73894;BMP280;62699;50.534;12.784;2022-12-18T06:59:05;97696.81;;;-13.02
73894;BMP280;62699;50.534;12.784;2022-12-18T07:04:05;97702.38;;;-12.95
73894;BMP280;62699;50.534;12.784;2022-12-18T07:09:06;97705.34;;;-12.88
73894;BMP280;62699;50.534;12.784;2022-12-18T07:14:06;97696.34;;;-12.82
73894;BMP280;62699;50.534;12.784;2022-12-18T07:19:06;97699.59;;;-12.77
73894;BMP280;62699;50.534;12.784;2022-12-18T07:24:07;97702.09;;;-12.71
73894;BMP280;62699;50.534;12.784;2022-12-18T07:29:07;97709.91;;;-12.63
73894;BMP280;62699;50.534;12.784;2022-12-18T07:34:12;97710.00;;;-12.54
73894;BMP280;62699;50.534;12.784;2022-12-18T07:39:12;97715.69;;;-12.44
73894;BMP280;62699;50.534;12.784;2022-12-18T07:44:13;97718.47;;;-12.40
73894;BMP280;62699;50.534;12.784;2022-12-18T07:49:13;97733.97;;;-12.26
73894;BMP280;62699;50.534;12.784;2022-12-18T07:54:13;97734.31;;;-12.19
73894;BMP280;62699;50.534;12.784;2022-12-18T07:59:14;97715.75;;;-12.04
73894;BMP280;62699;50.534;12.784;2022-12-18T08:04:14;97723.50;;;-9.08
73894;BMP280;62699;50.534;12.784;2022-12-18T08:09:14;97730.69;;;-6.11
73894;BMP280;62699;50.534;12.784;2022-12-18T08:14:15;97740.63;;;-4.53
73894;BMP280;62699;50.534;12.784;2022-12-18T08:19:15;97738.72;;;-3.81
73894;BMP280;62699;50.534;12.784;2022-12-18T08:24:15;97745.19;;;-3.45
73894;BMP280;62699;50.534;12.784;2022-12-18T08:29:16;97743.84;;;-2.98
73894;BMP280;62699;50.534;12.784;2022-12-18T08:34:16;97746.41;;;-3.39
73894;BMP280;62699;50.534;12.784;2022-12-18T08:39:16;97759.34;;;-4.09
73894;BMP280;62699;50.534;12.784;2022-12-18T08:44:16;97756.53;;;-3.41
73894;BMP280;62699;50.534;12.784;2022-12-18T08:49:35;97771.47;;;-3.48
73894;BMP280;62699;50.534;12.784;2022-12-18T08:54:36;97761.59;;;-3.25
73894;BMP280;62699;50.534;12.784;2022-12-18T08:59:36;97759.47;;;-4.25
73894;BMP280;62699;50.534;12.784;2022-12-18T09:04:37;97760.31;;;-5.24
73894;BMP280;62699;50.534;12.784;2022-12-18T09:09:37;97757.81;;;-5.17
73894;BMP280;62699;50.534;12.784;2022-12-18T09:14:37;97749.25;;;-5.14
73894;BMP280;62699;50.534;12.784;2022-12-18T09:19:38;97757.59;;;-5.28
73894;BMP280;62699;50.534;12.784;2022-12-18T09:24:38;97753.13;;;-5.08
73894;BMP280;62699;50.534;12.784;2022-12-18T09:29:38;97766.03;;;-4.57
73894;BMP280;62699;50.534;12.784;2022-12-18T09:34:39;97759.44;;;-4.51
73894;BMP280;62699;50.534;12.784;2022-12-18T09:39:39;97755.16;;;-4.14
73894;BMP280;62699;50.534;12.784;2022-12-18T09:44:43;97740.03;;;-3.94
73894;BMP280;62699;50.534;12.784;2022-12-18T09:49:49;97734.72;;;-3.71
73894;BMP280;62699;50.534;12.784;2022-12-18T09:54:59;97722.72;;;-3.69
73894;BMP280;62699;50.534;12.784;2022-12-18T10:00:16;97710.06;;;-3.26
73894;BMP280;62699;50.534;12.784;2022-12-18T10:05:30;97697.63;;;-2.92
73894;BMP280;62699;50.534;12.784;2022-12-18T10:10:39;97690.31;;;-2.65
73894;BMP280;62699;50.534;12.784;2022-12-18T10:15:56;97687.81;;;-2.47
73894;BMP280;62699;50.534;12.784;2022-12-18T10:21:03;97677.38;;;-2.30
73894;BMP280;62699;50.534;12.784;2022-12-18T10:26:09;97663.41;;;-2.34
73894;BMP280;62699;50.534;12.784;2022-12-18T10:31:18;97669.25;;;-2.00
73894;BMP280;62699;50.534;12.784;2022-12-18T10:36:18;97655.75;;;-1.88
73894;BMP280;62699;50.534;12.784;2022-12-18T10:46:21;97658.34;;;-1.91
73894;BMP280;62699;50.534;12.784;2022-12-18T10:51:27;97670.38;;;-2.01
73894;BMP280;62699;50.534;12.784;2022-12-18T10:56:30;97664.66;;;-2.13
73894;BMP280;62699;50.534;12.784;2022-12-18T11:01:51;97660.84;;;-2.23
73894;BMP280;62699;50.534;12.784;2022-12-18T11:07:08;97645.28;;;-2.42
73894;BMP280;62699;50.534;12.784;2022-12-18T11:12:19;97643.38;;;-2.45
73894;BMP280;62699;50.534;12.784;2022-12-18T11:17:31;97642.78;;;-2.76
73894;BMP280;62699;50.534;12.784;2022-12-18T11:22:36;97630.81;;;-2.66
73894;BMP280;62699;50.534;12.784;2022-12-18T11:27:39;97621.03;;;-2.66
73894;BMP280;62699;50.534;12.784;2022-12-18T11:32:43;97633.53;;;-2.56
73894;BMP280;62699;50.534;12.784;2022-12-18T11:37:53;97633.91;;;-2.54
73894;BMP280;62699;50.534;12.784;2022-12-18T11:43:08;97635.38;;;-2.60
73894;BMP280;62699;50.534;12.784;2022-12-18T11:48:18;97637.63;;;-2.62
73894;BMP280;62699;50.534;12.784;2022-12-18T11:53:20;97650.38;;;-2.64
73894;BMP280;62699;50.534;12.784;2022-12-18T12:04:07;97655.00;;;-2.54
73894;BMP280;62699;50.534;12.784;2022-12-18T12:14:59;97653.50;;;-2.51
73894;BMP280;62699;50.534;12.784;2022-12-18T12:41:06;97619.63;;;-2.49
73894;BMP280;62699;50.534;12.784;2022-12-18T12:46:31;97617.78;;;-2.45
73894;BMP280;62699;50.534;12.784;2022-12-18T12:51:38;97620.41;;;-2.41
73894;BMP280;62699;50.534;12.784;2022-12-18T12:56:53;97612.09;;;-2.47
73894;BMP280;62699;50.534;12.784;2022-12-18T13:07:19;97613.38;;;-2.27
73894;BMP280;62699;50.534;12.784;2022-12-18T13:12:20;97611.53;;;-2.12
73894;BMP280;62699;50.534;12.784;2022-12-18T13:17:39;97614.56;;;-2.10
73894;BMP280;62699;50.534;12.784;2022-12-18T13:22:43;97615.69;;;-2.14
73894;BMP280;62699;50.534;12.784;2022-12-18T13:32:45;97605.91;;;-2.76
73894;BMP280;62699;50.534;12.784;2022-12-18T13:37:55;97609.34;;;-3.12
73894;BMP280;62699;50.534;12.784;2022-12-18T13:42:55;97612.84;;;-3.42
73894;BMP280;62699;50.534;12.784;2022-12-18T13:48:19;97611.78;;;-3.71
73894;BMP280;62699;50.534;12.784;2022-12-18T13:53:27;97610.69;;;-4.00
73894;BMP280;62699;50.534;12.784;2022-12-18T13:58:29;97600.66;;;-4.20
73894;BMP280;62699;50.534;12.784;2022-12-18T14:03:30;97608.16;;;-4.49
73894;BMP280;62699;50.534;12.784;2022-12-18T14:08:41;97598.88;;;-4.66
73894;BMP280;62699;50.534;12.784;2022-12-18T14:13:43;97587.25;;;-4.91
73894;BMP280;62699;50.534;12.784;2022-12-18T14:18:47;97589.38;;;-4.97
73894;BMP280;62699;50.534;12.784;2022-12-18T14:23:49;97580.66;;;-5.04
73894;BMP280;62699;50.534;12.784;2022-12-18T14:34:26;97588.00;;;-5.13
73894;BMP280;62699;50.534;12.784;2022-12-18T14:39:26;97590.56;;;-5.17
73894;BMP280;62699;50.534;12.784;2022-12-18T14:44:27;97583.97;;;-5.30
73894;BMP280;62699;50.534;12.784;2022-12-18T14:49:33;97579.78;;;-5.54
73894;BMP280;62699;50.534;12.784;2022-12-18T14:54:34;97570.41;;;-5.74
73894;BMP280;62699;50.534;12.784;2022-12-18T14:59:35;97574.22;;;-5.91
73894;BMP280;62699;50.534;12.784;2022-12-18T15:04:37;97575.78;;;-6.06
73894;BMP280;62699;50.534;12.784;2022-12-18T15:09:41;97570.00;;;-6.15
73894;BMP280;62699;50.534;12.784;2022-12-18T15:14:44;97558.03;;;-6.31
73894;BMP280;62699;50.534;12.784;2022-12-18T15:19:47;97556.88;;;-6.50
73894;BMP280;62699;50.534;12.784;2022-12-18T15:24:48;97549.19;;;-6.58
73894;BMP280;62699;50.534;12.784;2022-12-18T15:40:21;97553.75;;;-6.71
73894;BMP280;62699;50.534;12.784;2022-12-18T15:45:22;97555.28;;;-6.70
73894;BMP280;62699;50.534;12.784;2022-12-18T15:50:23;97570.00;;;-6.65
73894;BMP280;62699;50.534;12.784;2022-12-18T15:55:24;97566.41;;;-6.57
73894;BMP280;62699;50.534;12.784;2022-12-18T16:00:43;97572.34;;;-6.60
73894;BMP280;62699;50.534;12.784;2022-12-18T16:05:43;97564.91;;;-6.58
73894;BMP280;62699;50.534;12.784;2022-12-18T16:10:43;97571.78;;;-6.54
73894;BMP280;62699;50.534;12.784;2022-12-18T16:15:44;97572.66;;;-6.46
73894;BMP280;62699;50.534;12.784;2022-12-18T16:20:44;97577.13;;;-6.47
73894;BMP280;62699;50.534;12.784;2022-12-18T16:25:44;97567.88;;;-6.44
73894;BMP280;62699;50.534;12.784;2022-12-18T16:30:45;97550.28;;;-6.44
73894;BMP280;62699;50.534;12.784;2022-12-18T16:35:51;97551.81;;;-6.43
73894;BMP280;62699;50.534;12.784;2022-12-18T16:40:51;97555.06;;;-6.30
73894;BMP280;62699;50.534;12.784;2022-12-18T16:46:10;97559.75;;;-6.20
73894;BMP280;62699;50.534;12.784;2022-12-18T16:51:10;97558.75;;;-6.15
73894;BMP280;62699;50.534;12.784;2022-12-18T16:56:10;97546.88;;;-6.09
73894;BMP280;62699;50.534;12.784;2022-12-18T17:01:11;97550.25;;;-5.89
73894;BMP280;62699;50.534;12.784;2022-12-18T17:06:11;97544.81;;;-5.81
73894;BMP280;62699;50.534;12.784;2022-12-18T17:11:11;97541.41;;;-5.62
73894;BMP280;62699;50.534;12.784;2022-12-18T17:16:11;97540.84;;;-5.52
73894;BMP280;62699;50.534;12.784;2022-12-18T17:21:13;97550.31;;;-5.24
73894;BMP280;62699;50.534;12.784;2022-12-18T17:26:29;97535.72;;;-4.99
73894;BMP280;62699;50.534;12.784;2022-12-18T17:31:29;97534.22;;;-4.97
73894;BMP280;62699;50.534;12.784;2022-12-18T17:36:30;97524.38;;;-4.77
73894;BMP280;62699;50.534;12.784;2022-12-18T17:41:32;97520.69;;;-4.49
73894;BMP280;62699;50.534;12.784;2022-12-18T17:46:33;97514.69;;;-4.46
73894;BMP280;62699;50.534;12.784;2022-12-18T17:51:33;97514.66;;;-4.50
73894;BMP280;62699;50.534;12.784;2022-12-18T17:56:34;97499.50;;;-4.30
73894;BMP280;62699;50.534;12.784;2022-12-18T18:01:34;97499.75;;;-4.39
73894;BMP280;62699;50.534;12.784;2022-12-18T18:06:34;97500.13;;;-4.40
73894;BMP280;62699;50.534;12.784;2022-12-18T18:11:34;97499.97;;;-4.21
73894;BMP280;62699;50.534;12.784;2022-12-18T18:16:54;97495.56;;;-4.13
73894;BMP280;62699;50.534;12.784;2022-12-18T18:21:54;97492.22;;;-4.10
73894;BMP280;62699;50.534;12.784;2022-12-18T18:26:54;97484.44;;;-4.00
73894;BMP280;62699;50.534;12.784;2022-12-18T18:31:55;97482.91;;;-4.01
73894;BMP280;62699;50.534;12.784;2022-12-18T18:36:55;97492.81;;;-3.90
73894;BMP280;62699;50.534;12.784;2022-12-18T18:41:56;97480.44;;;-3.86
73894;BMP280;62699;50.534;12.784;2022-12-18T18:46:57;97483.84;;;-3.42
73894;BMP280;62699;50.534;12.784;2022-12-18T18:51:57;97477.88;;;-3.32
73894;BMP280;62699;50.534;12.784;2022-12-18T18:56:58;97475.72;;;-3.22
73894;BMP280;62699;50.534;12.784;2022-12-18T19:01:59;97478.50;;;-2.94
73894;BMP280;62699;50.534;12.784;2022-12-18T19:06:59;97474.03;;;-2.90
73894;BMP280;62699;50.534;12.784;2022-12-18T19:12:00;97478.50;;;-2.98
73894;BMP280;62699;50.534;12.784;2022-12-18T19:17:19;97466.41;;;-3.02
73894;BMP280;62699;50.534;12.784;2022-12-18T19:22:20;97471.28;;;-3.11
73894;BMP280;62699;50.534;12.784;2022-12-18T19:27:20;97451.28;;;-3.19
73894;BMP280;62699;50.534;12.784;2022-12-18T19:32:20;97444.53;;;-3.17
73894;BMP280;62699;50.534;12.784;2022-12-18T19:37:20;97443.75;;;-3.21
73894;BMP280;62699;50.534;12.784;2022-12-18T19:42:21;97428.66;;;-3.28
73894;BMP280;62699;50.534;12.784;2022-12-18T19:47:21;97408.78;;;-3.18
73894;BMP280;62699;50.534;12.784;2022-12-18T19:52:21;97410.28;;;-3.13
73894;BMP280;62699;50.534;12.784;2022-12-18T19:57:22;97420.50;;;-3.08
73894;BMP280;62699;50.534;12.784;2022-12-18T20:02:22;97426.16;;;-3.06
73894;BMP280;62699;50.534;12.784;2022-12-18T20:07:22;97418.34;;;-2.85
73894;BMP280;62699;50.534;12.784;2022-12-18T20:12:22;97423.25;;;-2.80
73894;BMP280;62699;50.534;12.784;2022-12-18T20:17:23;97418.41;;;-2.71
73894;BMP280;62699;50.534;12.784;2022-12-18T20:22:23;97423.84;;;-2.28
73894;BMP280;62699;50.534;12.784;2022-12-18T20:27:24;97417.47;;;-1.95
73894;BMP280;62699;50.534;12.784;2022-12-18T20:32:24;97413.69;;;-1.80
73894;BMP280;62699;50.534;12.784;2022-12-18T20:37:24;97419.66;;;-1.12
73894;BMP280;62699;50.534;12.784;2022-12-18T20:42:24;97394.25;;;-0.85
73894;BMP280;62699;50.534;12.784;2022-12-18T20:47:25;97403.50;;;-0.45
73894;BMP280;62699;50.534;12.784;2022-12-18T20:52:25;97396.31;;;-0.48
73894;BMP280;62699;50.534;12.784;2022-12-18T20:57:25;97402.53;;;-0.79
73894;BMP280;62699;50.534;12.784;2022-12-18T21:02:26;97410.94;;;-1.02
73894;BMP280;62699;50.534;12.784;2022-12-18T21:07:26;97414.66;;;-0.82
73894;BMP280;62699;50.534;12.784;2022-12-18T21:12:26;97400.97;;;-0.69
73894;BMP280;62699;50.534;12.784;2022-12-18T21:17:33;97416.88;;;-0.73
73894;BMP280;62699;50.534;12.784;2022-12-18T21:22:34;97420.69;;;-0.88
73894;BMP280;62699;50.534;12.784;2022-12-18T21:27:34;97415.28;;;-0.60
73894;BMP280;62699;50.534;12.784;2022-12-18T21:32:34;97427.75;;;-0.60
73894;BMP280;62699;50.534;12.784;2022-12-18T21:37:35;97417.03;;;-0.36
73894;BMP280;62699;50.534;12.784;2022-12-18T21:42:35;97406.84;;;-0.41
73894;BMP280;62699;50.534;12.784;2022-12-18T21:47:53;97397.44;;;-0.49
73894;BMP280;62699;50.534;12.784;2022-12-18T21:52:54;97404.81;;;-0.85
73894;BMP280;62699;50.534;12.784;2022-12-18T21:57:55;97386.66;;;-0.76
73894;BMP280;62699;50.534;12.784;2022-12-18T22:02:56;97390.47;;;-0.91
73894;BMP280;62699;50.534;12.784;2022-12-18T22:07:56;97387.53;;;-1.07
73894;BMP280;62699;50.534;12.784;2022-12-18T22:12:57;97384.59;;;-1.23
73894;BMP280;62699;50.534;12.784;2022-12-18T22:17:57;97363.47;;;-1.30
73894;BMP280;62699;50.534;12.784;2022-12-18T22:22:58;97363.47;;;-1.34
73894;BMP280;62699;50.534;12.784;2022-12-18T22:27:58;97355.53;;;-1.27
73894;BMP280;62699;50.534;12.784;2022-12-18T22:33:17;97354.44;;;-1.33
73894;BMP280;62699;50.534;12.784;2022-12-18T22:38:17;97353.28;;;-1.35
73894;BMP280;62699;50.534;12.784;2022-12-18T22:43:18;97349.91;;;-1.50
73894;BMP280;62699;50.534;12.784;2022-12-18T22:48:18;97332.13;;;-1.32
73894;BMP280;62699;50.534;12.784;2022-12-18T22:53:18;97328.03;;;-1.33
73894;BMP280;62699;50.534;12.784;2022-12-18T22:58:19;97326.84;;;-1.25
73894;BMP280;62699;50.534;12.784;2022-12-18T23:03:19;97332.56;;;-1.44
73894;BMP280;62699;50.534;12.784;2022-12-18T23:08:26;97326.91;;;-1.50
73894;BMP280;62699;50.534;12.784;2022-12-18T23:13:39;97312.97;;;-1.61
73894;BMP280;62699;50.534;12.784;2022-12-18T23:18:41;97314.50;;;-1.70
73894;BMP280;62699;50.534;12.784;2022-12-18T23:23:42;97296.44;;;-1.75
73894;BMP280;62699;50.534;12.784;2022-12-18T23:28:42;97289.66;;;-1.76
73894;BMP280;62699;50.534;12.784;2022-12-18T23:33:44;97288.91;;;-1.73
73894;BMP280;62699;50.534;12.784;2022-12-18T23:38:52;97280.97;;;-1.77
73894;BMP280;62699;50.534;12.784;2022-12-18T23:43:53;97287.00;;;-1.91
73894;BMP280;62699;50.534;12.784;2022-12-18T23:48:53;97273.81;;;-1.87
73894;BMP280;62699;50.534;12.784;2022-12-18T23:53:57;97267.78;;;-1.88
73894;BMP280;62699;50.534;12.784;2022-12-18T23:58:57;97265.50;;;-1.89
